Time,TemperatureF,DewpointF,PressureIn,WindDirection,WindDirectionDegrees,WindSpeedMPH,WindSpeedGustMPH,Humidity,HourlyPrecipIn,Conditions,Clouds,dailyrainin,SoftwareType,DateUTC
2013-02-24 00:00:00,25.0,23.0,27.15,SSW,202,0.0,0.0,86,0.00,,,0.00,Rainwise IP-100,2013-02-24 07:00:00,
2013-02-24 00:05:00,25.0,23.0,27.15,SSW,202,2.0,2.0,84,0.00,,,0.00,Rainwise IP-100,2013-02-24 07:05:00,
2013-02-24 00:10:00,26.0,21.0,27.15,SSW,202,0.0,2.0,81,0.00,,,0.00,Rainwise IP-100,2013-02-24 07:10:00,
2013-02-24 00:15:00,26.0,21.0,27.15,SSW,202,0.0,1.0,80,0.00,,,0.00,Rainwise IP-100,2013-02-24 07:15:00,
2013-02-24 00:20:00,26.0,21.0,27.15,SSW,202,0.0,0.0,79,0.00,,,0.00,Rainwise IP-100,2013-02-24 07:20:00,
2013-02-24 00:25:00,26.0,21.0,27.15,SSW,202,0.0,0.0,80,0.00,,,0.00,Rainwise IP-100,2013-02-24 07:25:00,
2013-02-24 00:30:00,26.0,21.0,27.15,South,180,4.0,4.0,79,0.00,,,0.00,Rainwise IP-100,2013-02-24 07:30:00,
2013-02-24 00:35:00,27.0,23.0,27.15,SE,135,2.0,4.0,78,0.00,,,0.00,Rainwise IP-100,2013-02-24 07:35:00,
2013-02-24 00:40:00,27.0,23.0,27.15,ESE,112,1.0,4.0,77,0.00,,,0.00,Rainwise IP-100,2013-02-24 07:40:00,
2013-02-24 00:45:00,26.0,21.0,27.15,ESE,112,2.0,4.0,78,0.00,,,0.00,Rainwise IP-100,2013-02-24 07:45:00,
2013-02-24 00:50:00,27.0,23.0,27.15,ESE,112,2.0,4.0,77,0.00,,,0.00,Rainwise IP-100,2013-02-24 07:50:00,
2013-02-24 00:55:00,27.0,21.0,27.15,ESE,112,1.0,4.0,75,0.00,,,0.00,Rainwise IP-100,2013-02-24 07:55:00,
2013-02-24 01:00:00,27.0,21.0,27.15,ESE,112,3.0,3.0,75,0.00,,,0.00,Rainwise IP-100,2013-02-24 08:00:00,
2013-02-24 01:05:00,27.0,21.0,27.15,ESE,112,1.0,3.0,75,0.00,,,0.00,Rainwise IP-100,2013-02-24 08:05:00,
2013-02-24 01:10:00,27.0,21.0,27.16,ESE,112,0.0,1.0,75,0.00,,,0.00,Rainwise IP-100,2013-02-24 08:10:00,
2013-02-24 01:15:00,26.0,21.0,27.16,ESE,112,0.0,2.0,77,0.00,,,0.00,Rainwise IP-100,2013-02-24 08:15:00,
2013-02-24 01:20:00,26.0,21.0,27.17,ESE,112,0.0,1.0,76,0.00,,,0.00,Rainwise IP-100,2013-02-24 08:20:00,
2013-02-24 01:25:00,26.0,21.0,27.17,ESE,112,0.0,0.0,78,0.00,,,0.00,Rainwise IP-100,2013-02-24 08:25:00,
2013-02-24 01:30:00,26.0,21.0,27.17,ESE,112,0.0,0.0,78,0.00,,,0.00,Rainwise IP-100,2013-02-24 08:30:00,
2013-02-24 01:35:00,26.0,21.0,27.17,ESE,112,0.0,0.0,79,0.00,,,0.00,Rainwise IP-100,2013-02-24 08:35:00,
2013-02-24 01:40:00,26.0,21.0,27.17,SE,135,3.0,4.0,79,0.00,,,0.00,Rainwise IP-100,2013-02-24 08:40:00,
2013-02-24 01:45:00,27.0,23.0,27.17,SE,135,3.0,4.0,77,0.00,,,0.00,Rainwise IP-100,2013-02-24 08:45:00,
2013-02-24 01:50:00,27.0,21.0,27.16,ESE,112,2.0,4.0,75,0.00,,,0.00,Rainwise IP-100,2013-02-24 08:50:00,
2013-02-24 01:55:00,27.0,21.0,27.16,ESE,112,5.0,6.0,73,0.00,,,0.00,Rainwise IP-100,2013-02-24 08:55:00,
2013-02-24 02:00:00,27.0,21.0,27.17,SE,135,2.0,5.0,73,0.00,,,0.00,Rainwise IP-100,2013-02-24 09:00:00,
2013-02-24 02:05:00,27.0,21.0,27.17,SE,135,3.0,4.0,75,0.00,,,0.00,Rainwise IP-100,2013-02-24 09:05:00,
2013-02-24 02:10:00,27.0,21.0,27.17,ESE,112,5.0,6.0,73,0.00,,,0.00,Rainwise IP-100,2013-02-24 09:10:00,
2013-02-24 02:15:00,27.0,21.0,27.17,ESE,112,2.0,6.0,74,0.00,,,0.00,Rainwise IP-100,2013-02-24 09:15:00,
2013-02-24 02:20:00,27.0,21.0,27.17,East,90,0.0,4.0,73,0.00,,,0.00,Rainwise IP-100,2013-02-24 09:20:00,
2013-02-24 02:25:00,27.0,21.0,27.17,East,90,0.0,0.0,75,0.00,,,0.00,Rainwise IP-100,2013-02-24 09:25:00,
2013-02-24 02:30:00,27.0,21.0,27.17,East,90,0.0,2.0,75,0.00,,,0.00,Rainwise IP-100,2013-02-24 09:30:00,
2013-02-24 02:35:00,26.0,21.0,27.17,East,90,0.0,1.0,78,0.00,,,0.00,Rainwise IP-100,2013-02-24 09:35:00,
2013-02-24 02:40:00,26.0,21.0,27.18,East,90,2.0,4.0,77,0.00,,,0.00,Rainwise IP-100,2013-02-24 09:40:00,
2013-02-24 02:45:00,26.0,21.0,27.18,East,90,0.0,3.0,78,0.00,,,0.00,Rainwise IP-100,2013-02-24 09:45:00,
2013-02-24 02:50:00,26.0,21.0,27.18,East,90,0.0,0.0,78,0.00,,,0.00,Rainwise IP-100,2013-02-24 09:50:00,
2013-02-24 02:55:00,25.0,21.0,27.18,East,90,0.0,0.0,78,0.00,,,0.00,Rainwise IP-100,2013-02-24 09:55:00,
2013-02-24 03:00:00,25.0,21.0,27.19,East,90,0.0,0.0,81,0.00,,,0.00,Rainwise IP-100,2013-02-24 10:00:00,
2013-02-24 03:05:00,25.0,21.0,27.19,East,90,0.0,2.0,81,0.00,,,0.00,Rainwise IP-100,2013-02-24 10:05:00,
2013-02-24 03:10:00,25.0,21.0,27.19,East,90,0.0,1.0,81,0.00,,,0.00,Rainwise IP-100,2013-02-24 10:10:00,
2013-02-24 03:15:00,25.0,21.0,27.19,East,90,1.0,2.0,82,0.00,,,0.00,Rainwise IP-100,2013-02-24 10:15:00,
2013-02-24 03:20:00,26.0,21.0,27.18,ENE,67,1.0,5.0,79,0.00,,,0.00,Rainwise IP-100,2013-02-24 10:20:00,
2013-02-24 03:25:00,26.0,21.0,27.18,East,90,0.0,2.0,79,0.00,,,0.00,Rainwise IP-100,2013-02-24 10:25:00,
2013-02-24 03:30:00,26.0,21.0,27.18,SSE,157,2.0,5.0,78,0.00,,,0.00,Rainwise IP-100,2013-02-24 10:30:00,
2013-02-24 03:35:00,26.0,21.0,27.18,NW,315,2.0,4.0,79,0.00,,,0.00,Rainwise IP-100,2013-02-24 10:35:00,
2013-02-24 03:40:00,26.0,21.0,27.18,NW,315,0.0,4.0,79,0.00,,,0.00,Rainwise IP-100,2013-02-24 10:40:00,
2013-02-24 03:45:00,25.0,21.0,27.18,NW,315,0.0,0.0,79,0.00,,,0.00,Rainwise IP-100,2013-02-24 10:45:00,
2013-02-24 03:50:00,25.0,21.0,27.19,NW,315,0.0,0.0,79,0.00,,,0.00,Rainwise IP-100,2013-02-24 10:50:00,
2013-02-24 03:55:00,24.0,21.0,27.19,NW,315,0.0,0.0,82,0.00,,,0.00,Rainwise IP-100,2013-02-24 10:55:00,
2013-02-24 04:00:00,24.0,21.0,27.20,NW,315,0.0,0.0,83,0.00,,,0.00,Rainwise IP-100,2013-02-24 11:00:00,
2013-02-24 04:05:00,23.0,18.0,27.20,NW,315,0.0,0.0,87,0.00,,,0.00,Rainwise IP-100,2013-02-24 11:05:00,
2013-02-24 04:10:00,23.0,21.0,27.21,NW,315,0.0,0.0,89,0.00,,,0.00,Rainwise IP-100,2013-02-24 11:10:00,
2013-02-24 04:15:00,23.0,21.0,27.21,NW,315,0.0,0.0,89,0.00,,,0.00,Rainwise IP-100,2013-02-24 11:15:00,
2013-02-24 04:20:00,23.0,21.0,27.21,NW,315,0.0,0.0,89,0.00,,,0.00,Rainwise IP-100,2013-02-24 11:20:00,
2013-02-24 04:25:00,23.0,21.0,27.21,NW,315,0.0,0.0,90,0.00,,,0.00,Rainwise IP-100,2013-02-24 11:25:00,
2013-02-24 04:30:00,23.0,21.0,27.21,NW,315,0.0,0.0,90,0.00,,,0.00,Rainwise IP-100,2013-02-24 11:30:00,
2013-02-24 04:35:00,24.0,23.0,27.21,NW,315,0.0,0.0,89,0.00,,,0.00,Rainwise IP-100,2013-02-24 11:35:00,
2013-02-24 04:40:00,24.0,21.0,27.21,NW,315,0.0,0.0,87,0.00,,,0.00,Rainwise IP-100,2013-02-24 11:40:00,
2013-02-24 04:45:00,24.0,21.0,27.21,NW,315,0.0,0.0,87,0.00,,,0.00,Rainwise IP-100,2013-02-24 11:45:00,
2013-02-24 04:50:00,25.0,23.0,27.19,ESE,112,2.0,4.0,85,0.00,,,0.00,Rainwise IP-100,2013-02-24 11:50:00,
2013-02-24 04:55:00,25.0,23.0,27.19,ESE,112,0.0,3.0,86,0.00,,,0.00,Rainwise IP-100,2013-02-24 11:55:00,
2013-02-24 05:00:00,25.0,23.0,27.19,ESE,112,0.0,0.0,84,0.00,,,0.00,Rainwise IP-100,2013-02-24 12:00:00,
2013-02-24 05:05:00,25.0,23.0,27.19,ESE,112,0.0,0.0,85,0.00,,,0.00,Rainwise IP-100,2013-02-24 12:05:00,
2013-02-24 05:10:00,25.0,23.0,27.20,ESE,112,0.0,0.0,85,0.00,,,0.00,Rainwise IP-100,2013-02-24 12:10:00,
2013-02-24 05:15:00,24.0,21.0,27.20,ESE,112,0.0,0.0,87,0.00,,,0.00,Rainwise IP-100,2013-02-24 12:15:00,
2013-02-24 05:20:00,25.0,23.0,27.20,ESE,112,0.0,0.0,86,0.00,,,0.00,Rainwise IP-100,2013-02-24 12:20:00,
2013-02-24 05:25:00,25.0,23.0,27.20,ESE,112,0.0,0.0,87,0.00,,,0.00,Rainwise IP-100,2013-02-24 12:25:00,
2013-02-24 05:30:00,25.0,23.0,27.21,ESE,112,0.0,0.0,86,0.00,,,0.00,Rainwise IP-100,2013-02-24 12:30:00,
2013-02-24 05:31:00,25.0,23.0,27.21,ESE,112,0.0,0.0,87,0.00,,,0.00,Rainwise IP-100,2013-02-24 12:31:00,
2013-02-24 05:36:00,25.0,23.0,27.21,ESE,112,0.0,0.0,87,0.00,,,0.00,Rainwise IP-100,2013-02-24 12:36:00,
2013-02-24 05:41:00,25.0,23.0,27.21,ESE,112,0.0,0.0,88,0.00,,,0.00,Rainwise IP-100,2013-02-24 12:41:00,
2013-02-24 05:46:00,25.0,23.0,27.21,ESE,112,0.0,0.0,88,0.00,,,0.00,Rainwise IP-100,2013-02-24 12:46:00,
2013-02-24 05:51:00,25.0,23.0,27.21,ESE,112,0.0,2.0,89,0.00,,,0.00,Rainwise IP-100,2013-02-24 12:51:00,
2013-02-24 05:56:00,25.0,23.0,27.21,ESE,112,0.0,2.0,88,0.00,,,0.00,Rainwise IP-100,2013-02-24 12:56:00,
2013-02-24 06:01:00,25.0,23.0,27.21,ESE,112,0.0,0.0,88,0.00,,,0.00,Rainwise IP-100,2013-02-24 13:01:00,
2013-02-24 06:06:00,25.0,23.0,27.21,ESE,112,0.0,0.0,88,0.00,,,0.00,Rainwise IP-100,2013-02-24 13:06:00,
2013-02-24 06:11:00,25.0,23.0,27.21,ESE,112,0.0,0.0,87,0.00,,,0.00,Rainwise IP-100,2013-02-24 13:11:00,
2013-02-24 06:16:00,25.0,23.0,27.21,ESE,112,0.0,0.0,86,0.00,,,0.00,Rainwise IP-100,2013-02-24 13:16:00,
2013-02-24 06:21:00,25.0,23.0,27.21,ESE,112,0.0,2.0,86,0.00,,,0.00,Rainwise IP-100,2013-02-24 13:21:00,
2013-02-24 06:26:00,25.0,23.0,27.21,ESE,112,0.0,0.0,86,0.00,,,0.00,Rainwise IP-100,2013-02-24 13:26:00,
2013-02-24 06:31:00,25.0,23.0,27.21,ESE,112,0.0,0.0,86,0.00,,,0.00,Rainwise IP-100,2013-02-24 13:31:00,
2013-02-24 06:36:00,25.0,23.0,27.21,ESE,112,0.0,0.0,88,0.00,,,0.00,Rainwise IP-100,2013-02-24 13:36:00,
2013-02-24 06:41:00,25.0,23.0,27.20,ESE,112,0.0,0.0,86,0.00,,,0.00,Rainwise IP-100,2013-02-24 13:41:00,
2013-02-24 06:46:00,25.0,23.0,27.20,ESE,112,0.0,0.0,86,0.00,,,0.00,Rainwise IP-100,2013-02-24 13:46:00,
2013-02-24 06:51:00,25.0,23.0,27.21,ESE,112,0.0,0.0,87,0.00,,,0.00,Rainwise IP-100,2013-02-24 13:51:00,
2013-02-24 06:56:00,25.0,23.0,27.21,ESE,112,0.0,0.0,88,0.00,,,0.00,Rainwise IP-100,2013-02-24 13:56:00,
2013-02-24 07:01:00,25.0,23.0,27.21,ESE,112,0.0,0.0,87,0.00,,,0.00,Rainwise IP-100,2013-02-24 14:01:00,
2013-02-24 07:06:00,25.0,23.0,27.21,ESE,112,0.0,0.0,87,0.00,,,0.00,Rainwise IP-100,2013-02-24 14:06:00,
2013-02-24 07:11:00,25.0,23.0,27.21,ESE,112,0.0,0.0,88,0.00,,,0.00,Rainwise IP-100,2013-02-24 14:11:00,
2013-02-24 07:16:00,25.0,23.0,27.21,ESE,112,0.0,0.0,88,0.00,,,0.00,Rainwise IP-100,2013-02-24 14:16:00,
2013-02-24 07:21:00,25.0,23.0,27.21,ESE,112,0.0,0.0,89,0.00,,,0.00,Rainwise IP-100,2013-02-24 14:21:00,
2013-02-24 07:26:00,25.0,23.0,27.21,ESE,112,0.0,0.0,89,0.00,,,0.00,Rainwise IP-100,2013-02-24 14:26:00,
2013-02-24 07:31:00,25.0,23.0,27.21,ESE,112,0.0,0.0,89,0.00,,,0.00,Rainwise IP-100,2013-02-24 14:31:00,
2013-02-24 07:36:00,25.0,23.0,27.21,ESE,112,0.0,0.0,89,0.00,,,0.00,Rainwise IP-100,2013-02-24 14:36:00,
2013-02-24 07:41:00,25.0,23.0,27.21,ESE,112,0.0,0.0,88,0.00,,,0.00,Rainwise IP-100,2013-02-24 14:41:00,
2013-02-24 07:46:00,25.0,23.0,27.21,ESE,112,0.0,0.0,88,0.00,,,0.00,Rainwise IP-100,2013-02-24 14:46:00,
2013-02-24 07:51:00,26.0,23.0,27.21,ESE,112,0.0,0.0,88,0.00,,,0.00,Rainwise IP-100,2013-02-24 14:51:00,
2013-02-24 07:56:00,26.0,23.0,27.21,ESE,112,0.0,0.0,88,0.00,,,0.00,Rainwise IP-100,2013-02-24 14:56:00,
2013-02-24 08:01:00,26.0,23.0,27.21,ESE,112,0.0,0.0,88,0.00,,,0.00,Rainwise IP-100,2013-02-24 15:01:00,
2013-02-24 08:06:00,26.0,23.0,27.21,ESE,112,0.0,0.0,87,0.00,,,0.00,Rainwise IP-100,2013-02-24 15:06:00,
2013-02-24 08:11:00,26.0,23.0,27.21,ESE,112,0.0,0.0,87,0.00,,,0.00,Rainwise IP-100,2013-02-24 15:11:00,
2013-02-24 08:16:00,26.0,23.0,27.21,ESE,112,0.0,0.0,88,0.00,,,0.00,Rainwise IP-100,2013-02-24 15:16:00,
2013-02-24 08:21:00,27.0,24.0,27.21,ESE,112,0.0,0.0,86,0.00,,,0.00,Rainwise IP-100,2013-02-24 15:21:00,
2013-02-24 08:26:00,27.0,24.0,27.21,ESE,112,0.0,0.0,85,0.00,,,0.00,Rainwise IP-100,2013-02-24 15:26:00,
2013-02-24 08:31:00,27.0,24.0,27.21,ESE,112,0.0,0.0,85,0.00,,,0.00,Rainwise IP-100,2013-02-24 15:31:00,
2013-02-24 08:36:00,27.0,23.0,27.21,ESE,112,0.0,0.0,83,0.00,,,0.00,Rainwise IP-100,2013-02-24 15:36:00,
2013-02-24 08:41:00,28.0,23.0,27.20,ESE,112,0.0,0.0,82,0.00,,,0.00,Rainwise IP-100,2013-02-24 15:41:00,
2013-02-24 08:46:00,28.0,23.0,27.20,ESE,112,0.0,2.0,80,0.00,,,0.00,Rainwise IP-100,2013-02-24 15:46:00,
2013-02-24 08:51:00,28.0,23.0,27.21,ESE,112,1.0,3.0,78,0.00,,,0.00,Rainwise IP-100,2013-02-24 15:51:00,
2013-02-24 08:56:00,28.0,23.0,27.21,ESE,112,0.0,2.0,78,0.00,,,0.00,Rainwise IP-100,2013-02-24 15:56:00,
2013-02-24 09:01:00,28.0,21.0,27.20,ESE,112,1.0,4.0,76,0.00,,,0.00,Rainwise IP-100,2013-02-24 16:01:00,
2013-02-24 09:06:00,29.0,23.0,27.20,ESE,112,0.0,2.0,78,0.00,,,0.00,Rainwise IP-100,2013-02-24 16:06:00,
2013-02-24 09:11:00,29.0,23.0,27.21,ESE,112,0.0,0.0,77,0.00,,,0.00,Rainwise IP-100,2013-02-24 16:11:00,
2013-02-24 09:16:00,29.0,23.0,27.21,West,270,2.0,5.0,75,0.00,,,0.00,Rainwise IP-100,2013-02-24 16:16:00,
2013-02-24 09:21:00,29.0,23.0,27.20,SW,225,0.0,3.0,74,0.00,,,0.00,Rainwise IP-100,2013-02-24 16:21:00,
2013-02-24 09:26:00,30.0,23.0,27.20,West,270,3.0,6.0,73,0.00,,,0.00,Rainwise IP-100,2013-02-24 16:26:00,
2013-02-24 09:31:00,30.0,23.0,27.20,NNW,337,3.0,6.0,73,0.00,,,0.00,Rainwise IP-100,2013-02-24 16:31:00,
2013-02-24 09:36:00,30.0,23.0,27.20,WNW,292,1.0,4.0,73,0.00,,,0.00,Rainwise IP-100,2013-02-24 16:36:00,
2013-02-24 09:41:00,30.0,23.0,27.21,WNW,292,0.0,3.0,72,0.00,,,0.00,Rainwise IP-100,2013-02-24 16:41:00,
2013-02-24 09:46:00,30.0,23.0,27.21,WNW,292,1.0,2.0,72,0.00,,,0.00,Rainwise IP-100,2013-02-24 16:46:00,
2013-02-24 09:51:00,31.0,23.0,27.20,WNW,292,0.0,3.0,72,0.00,,,0.00,Rainwise IP-100,2013-02-24 16:51:00,
2013-02-24 09:56:00,31.0,23.0,27.20,WNW,292,0.0,1.0,70,0.00,,,0.00,Rainwise IP-100,2013-02-24 16:56:00,
2013-02-24 10:01:00,31.0,23.0,27.20,NE,45,2.0,3.0,68,0.00,,,0.00,Rainwise IP-100,2013-02-24 17:01:00,
2013-02-24 10:06:00,31.0,23.0,27.20,ENE,67,0.0,4.0,70,0.00,,,0.00,Rainwise IP-100,2013-02-24 17:06:00,
2013-02-24 10:11:00,31.0,23.0,27.20,NE,45,2.0,6.0,68,0.00,,,0.00,Rainwise IP-100,2013-02-24 17:11:00,
2013-02-24 10:16:00,31.0,23.0,27.20,NE,45,0.0,4.0,70,0.00,,,0.00,Rainwise IP-100,2013-02-24 17:16:00,
2013-02-24 10:21:00,31.0,23.0,27.20,NNW,337,2.0,5.0,70,0.00,,,0.00,Rainwise IP-100,2013-02-24 17:21:00,
2013-02-24 10:26:00,32.0,23.0,27.20,WNW,292,0.0,4.0,69,0.00,,,0.00,Rainwise IP-100,2013-02-24 17:26:00,
2013-02-24 10:31:00,32.0,23.0,27.20,NW,315,4.0,4.0,68,0.00,,,0.00,Rainwise IP-100,2013-02-24 17:31:00,
2013-02-24 10:36:00,33.0,24.0,27.20,North,360,4.0,6.0,67,0.00,,,0.00,Rainwise IP-100,2013-02-24 17:36:00,
2013-02-24 10:41:00,33.0,23.0,27.19,ESE,112,2.0,5.0,64,0.00,,,0.00,Rainwise IP-100,2013-02-24 17:41:00,
2013-02-24 10:47:00,34.0,24.0,27.19,WNW,292,0.0,5.0,63,0.00,,,0.00,Rainwise IP-100,2013-02-24 17:47:00,
2013-02-24 10:52:00,34.0,24.0,27.19,WNW,292,2.0,5.0,64,0.00,,,0.00,Rainwise IP-100,2013-02-24 17:52:00,
2013-02-24 10:57:00,34.0,24.0,27.19,WNW,292,4.0,4.0,64,0.00,,,0.00,Rainwise IP-100,2013-02-24 17:57:00,
2013-02-24 11:02:00,34.0,24.0,27.19,WNW,292,4.0,5.0,64,0.00,,,0.00,Rainwise IP-100,2013-02-24 18:02:00,
2013-02-24 11:07:00,34.0,23.0,27.19,West,270,2.0,5.0,62,0.00,,,0.00,Rainwise IP-100,2013-02-24 18:07:00,
2013-02-24 11:12:00,34.0,23.0,27.19,West,270,4.0,5.0,62,0.00,,,0.00,Rainwise IP-100,2013-02-24 18:12:00,
2013-02-24 11:17:00,34.0,23.0,27.19,North,360,3.0,6.0,61,0.00,,,0.00,Rainwise IP-100,2013-02-24 18:17:00,
2013-02-24 11:22:00,34.0,23.0,27.17,North,360,0.0,4.0,60,0.00,,,0.00,Rainwise IP-100,2013-02-24 18:22:00,
2013-02-24 11:27:00,35.0,23.0,27.17,WNW,292,0.0,3.0,60,0.00,,,0.00,Rainwise IP-100,2013-02-24 18:27:00,
2013-02-24 11:32:00,34.0,23.0,27.17,North,360,2.0,7.0,60,0.00,,,0.00,Rainwise IP-100,2013-02-24 18:32:00,
2013-02-24 11:37:00,35.0,23.0,27.17,WNW,292,0.0,5.0,60,0.00,,,0.00,Rainwise IP-100,2013-02-24 18:37:00,
2013-02-24 11:42:00,35.0,23.0,27.17,NNW,337,2.0,5.0,60,0.00,,,0.00,Rainwise IP-100,2013-02-24 18:42:00,
2013-02-24 11:47:00,35.0,23.0,27.17,WSW,247,0.0,4.0,59,0.00,,,0.00,Rainwise IP-100,2013-02-24 18:47:00,
2013-02-24 11:52:00,35.0,23.0,27.17,NW,315,4.0,7.0,58,0.00,,,0.00,Rainwise IP-100,2013-02-24 18:52:00,
2013-02-24 11:57:00,35.0,21.0,27.17,WNW,292,3.0,6.0,57,0.00,,,0.00,Rainwise IP-100,2013-02-24 18:57:00,
2013-02-24 12:02:00,35.0,23.0,27.17,NNW,337,6.0,6.0,58,0.00,,,0.00,Rainwise IP-100,2013-02-24 19:02:00,
2013-02-24 12:07:00,36.0,23.0,27.17,North,360,6.0,7.0,56,0.00,,,0.00,Rainwise IP-100,2013-02-24 19:07:00,
2013-02-24 12:12:00,36.0,23.0,27.17,WNW,292,2.0,8.0,57,0.00,,,0.00,Rainwise IP-100,2013-02-24 19:12:00,
2013-02-24 12:17:00,37.0,23.0,27.17,North,360,6.0,9.0,55,0.00,,,0.00,Rainwise IP-100,2013-02-24 19:17:00,
2013-02-24 12:22:00,37.0,23.0,27.16,NNW,337,4.0,9.0,54,0.00,,,0.00,Rainwise IP-100,2013-02-24 19:22:00,
2013-02-24 12:27:00,38.0,23.0,27.16,NNW,337,7.0,10.0,52,0.00,,,0.00,Rainwise IP-100,2013-02-24 19:27:00,
2013-02-24 12:32:00,38.0,23.0,27.15,West,270,6.0,10.0,51,0.00,,,0.00,Rainwise IP-100,2013-02-24 19:32:00,
2013-02-24 12:37:00,39.0,21.0,27.15,SSW,202,6.0,12.0,46,0.00,,,0.00,Rainwise IP-100,2013-02-24 19:37:00,
2013-02-24 12:42:00,39.0,21.0,27.14,WSW,247,8.0,13.0,46,0.00,,,0.00,Rainwise IP-100,2013-02-24 19:42:00,
2013-02-24 12:47:00,39.0,21.0,27.14,WNW,292,6.0,17.0,46,0.00,,,0.00,Rainwise IP-100,2013-02-24 19:47:00,
2013-02-24 12:52:00,39.0,18.0,27.13,WSW,247,7.0,17.0,42,0.00,,,0.00,Rainwise IP-100,2013-02-24 19:52:00,
2013-02-24 12:57:00,39.0,21.0,27.13,WNW,292,12.0,13.0,45,0.00,,,0.00,Rainwise IP-100,2013-02-24 19:57:00,
2013-02-24 13:02:00,38.0,21.0,27.14,WNW,292,10.0,13.0,48,0.00,,,0.00,Rainwise IP-100,2013-02-24 20:02:00,
2013-02-24 13:07:00,38.0,21.0,27.14,WNW,292,7.0,11.0,49,0.00,,,0.00,Rainwise IP-100,2013-02-24 20:07:00,
2013-02-24 13:12:00,38.0,23.0,27.14,NW,315,6.0,10.0,50,0.00,,,0.00,Rainwise IP-100,2013-02-24 20:12:00,
2013-02-24 13:17:00,37.0,21.0,27.14,West,270,9.0,11.0,49,0.00,,,0.00,Rainwise IP-100,2013-02-24 20:17:00,
2013-02-24 13:22:00,38.0,21.0,27.14,WNW,292,8.0,10.0,49,0.00,,,0.00,Rainwise IP-100,2013-02-24 20:22:00,
2013-02-24 13:27:00,37.0,21.0,27.14,WSW,247,4.0,12.0,50,0.00,,,0.00,Rainwise IP-100,2013-02-24 20:27:00,
2013-02-24 13:32:00,37.0,21.0,27.14,West,270,5.0,13.0,49,0.00,,,0.00,Rainwise IP-100,2013-02-24 20:32:00,
2013-02-24 13:37:00,38.0,21.0,27.14,SSW,202,1.0,13.0,46,0.00,,,0.00,Rainwise IP-100,2013-02-24 20:37:00,
2013-02-24 13:42:00,37.0,18.0,27.14,WNW,292,7.0,16.0,45,0.00,,,0.00,Rainwise IP-100,2013-02-24 20:42:00,
2013-02-24 13:47:00,37.0,18.0,27.14,WNW,292,2.0,17.0,46,0.00,,,0.00,Rainwise IP-100,2013-02-24 20:47:00,
2013-02-24 13:52:00,38.0,21.0,27.14,WSW,247,6.0,11.0,47,0.00,,,0.00,Rainwise IP-100,2013-02-24 20:52:00,
2013-02-24 13:57:00,38.0,21.0,27.14,WSW,247,1.0,13.0,47,0.00,,,0.00,Rainwise IP-100,2013-02-24 20:57:00,
2013-02-24 14:02:00,38.0,21.0,27.13,WNW,292,7.0,10.0,47,0.00,,,0.00,Rainwise IP-100,2013-02-24 21:02:00,
2013-02-24 14:07:00,37.0,18.0,27.13,WNW,292,3.0,14.0,47,0.00,,,0.00,Rainwise IP-100,2013-02-24 21:07:00,
2013-02-24 14:12:00,37.0,18.0,27.14,West,270,4.0,14.0,47,0.00,,,0.00,Rainwise IP-100,2013-02-24 21:12:00,
2013-02-24 14:17:00,37.0,18.0,27.14,WNW,292,11.0,16.0,47,0.00,,,0.00,Rainwise IP-100,2013-02-24 21:17:00,
2013-02-24 14:22:00,37.0,21.0,27.14,WNW,292,7.0,15.0,48,0.00,,,0.00,Rainwise IP-100,2013-02-24 21:22:00,
2013-02-24 14:27:00,37.0,18.0,27.14,WNW,292,9.0,14.0,47,0.00,,,0.00,Rainwise IP-100,2013-02-24 21:27:00,
2013-02-24 14:32:00,37.0,21.0,27.14,West,270,9.0,11.0,48,0.00,,,0.00,Rainwise IP-100,2013-02-24 21:32:00,
2013-02-24 14:37:00,37.0,21.0,27.14,West,270,10.0,13.0,48,0.00,,,0.00,Rainwise IP-100,2013-02-24 21:37:00,
2013-02-24 14:42:00,37.0,21.0,27.13,WSW,247,6.0,15.0,49,0.00,,,0.00,Rainwise IP-100,2013-02-24 21:42:00,
2013-02-24 14:47:00,37.0,21.0,27.13,West,270,9.0,9.0,48,0.00,,,0.00,Rainwise IP-100,2013-02-24 21:47:00,
2013-02-24 14:52:00,37.0,21.0,27.13,WNW,292,6.0,10.0,48,0.00,,,0.00,Rainwise IP-100,2013-02-24 21:52:00,
2013-02-24 14:57:00,37.0,21.0,27.13,West,270,5.0,10.0,49,0.00,,,0.00,Rainwise IP-100,2013-02-24 21:57:00,
2013-02-24 15:02:00,38.0,21.0,27.12,WSW,247,2.0,8.0,49,0.00,,,0.00,Rainwise IP-100,2013-02-24 22:02:00,
2013-02-24 15:07:00,39.0,23.0,27.12,South,180,6.0,9.0,49,0.00,,,0.00,Rainwise IP-100,2013-02-24 22:07:00,
2013-02-24 15:12:00,38.0,21.0,27.12,West,270,13.0,13.0,48,0.00,,,0.00,Rainwise IP-100,2013-02-24 22:12:00,
2013-02-24 15:17:00,39.0,23.0,27.12,WNW,292,4.0,13.0,49,0.00,,,0.00,Rainwise IP-100,2013-02-24 22:17:00,
2013-02-24 15:22:00,39.0,23.0,27.11,SW,225,5.0,10.0,49,0.00,,,0.00,Rainwise IP-100,2013-02-24 22:22:00,
2013-02-24 15:27:00,39.0,23.0,27.11,WNW,292,7.0,9.0,48,0.00,,,0.00,Rainwise IP-100,2013-02-24 22:27:00,
2013-02-24 15:32:00,39.0,23.0,27.11,WSW,247,7.0,10.0,48,0.00,,,0.00,Rainwise IP-100,2013-02-24 22:32:00,
2013-02-24 15:37:00,38.0,21.0,27.11,SW,225,1.0,11.0,49,0.00,,,0.00,Rainwise IP-100,2013-02-24 22:37:00,
2013-02-24 15:42:00,38.0,21.0,27.12,WSW,247,9.0,10.0,49,0.00,,,0.00,Rainwise IP-100,2013-02-24 22:42:00,
2013-02-24 15:47:00,38.0,21.0,27.12,West,270,7.0,10.0,48,0.00,,,0.00,Rainwise IP-100,2013-02-24 22:47:00,
2013-02-24 15:52:00,38.0,21.0,27.12,WNW,292,2.0,11.0,49,0.00,,,0.00,Rainwise IP-100,2013-02-24 22:52:00,
2013-02-24 15:57:00,37.0,21.0,27.12,WNW,292,3.0,9.0,49,0.00,,,0.00,Rainwise IP-100,2013-02-24 22:57:00,
2013-02-24 16:02:00,37.0,21.0,27.13,WNW,292,6.0,7.0,51,0.00,,,0.00,Rainwise IP-100,2013-02-24 23:02:00,
2013-02-24 16:07:00,37.0,21.0,27.13,WNW,292,5.0,10.0,51,0.00,,,0.00,Rainwise IP-100,2013-02-24 23:07:00,
2013-02-24 16:12:00,37.0,21.0,27.13,NW,315,5.0,10.0,50,0.00,,,0.00,Rainwise IP-100,2013-02-24 23:12:00,
2013-02-24 16:17:00,37.0,21.0,27.13,WSW,247,3.0,11.0,51,0.00,,,0.00,Rainwise IP-100,2013-02-24 23:17:00,
2013-02-24 16:22:00,37.0,21.0,27.13,WSW,247,3.0,11.0,52,0.00,,,0.00,Rainwise IP-100,2013-02-24 23:22:00,
2013-02-24 16:27:00,37.0,21.0,27.13,WNW,292,2.0,12.0,51,0.00,,,0.00,Rainwise IP-100,2013-02-24 23:27:00,
2013-02-24 16:32:00,37.0,21.0,27.13,WSW,247,9.0,10.0,51,0.00,,,0.00,Rainwise IP-100,2013-02-24 23:32:00,
2013-02-24 16:37:00,37.0,21.0,27.13,West,270,6.0,10.0,51,0.00,,,0.00,Rainwise IP-100,2013-02-24 23:37:00,
2013-02-24 16:42:00,38.0,23.0,27.12,SSE,157,1.0,10.0,50,0.00,,,0.00,Rainwise IP-100,2013-02-24 23:42:00,
2013-02-24 16:47:00,38.0,21.0,27.12,NW,315,3.0,9.0,49,0.00,,,0.00,Rainwise IP-100,2013-02-24 23:47:00,
2013-02-24 16:52:00,38.0,23.0,27.12,South,180,1.0,10.0,50,0.00,,,0.00,Rainwise IP-100,2013-02-24 23:52:00,
2013-02-24 16:57:00,37.0,21.0,27.12,WSW,247,8.0,11.0,49,0.00,,,0.00,Rainwise IP-100,2013-02-24 23:57:00,
2013-02-24 17:02:00,37.0,21.0,27.13,West,270,4.0,11.0,51,0.00,,,0.00,Rainwise IP-100,2013-02-25 00:02:00,
2013-02-24 17:07:00,37.0,21.0,27.13,WNW,292,3.0,10.0,51,0.00,,,0.00,Rainwise IP-100,2013-02-25 00:07:00,
2013-02-24 17:12:00,37.0,21.0,27.13,West,270,11.0,13.0,50,0.00,,,0.00,Rainwise IP-100,2013-02-25 00:12:00,
2013-02-24 17:17:00,37.0,21.0,27.13,WSW,247,6.0,12.0,51,0.00,,,0.00,Rainwise IP-100,2013-02-25 00:17:00,
2013-02-24 17:22:00,37.0,21.0,27.12,WSW,247,7.0,12.0,52,0.00,,,0.00,Rainwise IP-100,2013-02-25 00:22:00,
2013-02-24 17:27:00,36.0,21.0,27.12,West,270,6.0,10.0,53,0.00,,,0.00,Rainwise IP-100,2013-02-25 00:27:00,
2013-02-24 17:32:00,36.0,21.0,27.12,West,270,4.0,12.0,53,0.00,,,0.00,Rainwise IP-100,2013-02-25 00:32:00,
2013-02-24 17:37:00,36.0,21.0,27.12,WNW,292,2.0,9.0,54,0.00,,,0.00,Rainwise IP-100,2013-02-25 00:37:00,
2013-02-24 17:42:00,36.0,21.0,27.13,WNW,292,6.0,9.0,54,0.00,,,0.00,Rainwise IP-100,2013-02-25 00:42:00,
2013-02-24 17:47:00,36.0,21.0,27.13,WNW,292,6.0,9.0,54,0.00,,,0.00,Rainwise IP-100,2013-02-25 00:47:00,
2013-02-24 17:52:00,36.0,23.0,27.13,WNW,292,6.0,6.0,55,0.00,,,0.00,Rainwise IP-100,2013-02-25 00:52:00,
2013-02-24 17:57:00,35.0,21.0,27.13,NW,315,3.0,10.0,56,0.00,,,0.00,Rainwise IP-100,2013-02-25 00:57:00,
2013-02-24 18:02:00,35.0,23.0,27.13,West,270,5.0,7.0,58,0.00,,,0.00,Rainwise IP-100,2013-02-25 01:02:00,
2013-02-24 18:07:00,35.0,23.0,27.13,West,270,6.0,7.0,58,0.00,,,0.00,Rainwise IP-100,2013-02-25 01:07:00,
2013-02-24 18:12:00,35.0,23.0,27.13,NW,315,6.0,7.0,58,0.00,,,0.00,Rainwise IP-100,2013-02-25 01:12:00,
2013-02-24 18:17:00,35.0,23.0,27.13,NNW,337,8.0,9.0,59,0.00,,,0.00,Rainwise IP-100,2013-02-25 01:17:00,
2013-02-24 18:22:00,34.0,23.0,27.13,WNW,292,5.0,10.0,60,0.00,,,0.00,Rainwise IP-100,2013-02-25 01:22:00,
2013-02-24 18:27:00,34.0,23.0,27.13,WNW,292,4.0,9.0,60,0.00,,,0.00,Rainwise IP-100,2013-02-25 01:27:00,
2013-02-24 18:32:00,34.0,23.0,27.13,NNW,337,0.0,4.0,60,0.00,,,0.00,Rainwise IP-100,2013-02-25 01:32:00,
2013-02-24 18:37:00,34.0,23.0,27.13,NW,315,5.0,7.0,61,0.00,,,0.00,Rainwise IP-100,2013-02-25 01:37:00,
2013-02-24 18:42:00,34.0,23.0,27.13,NW,315,5.0,7.0,60,0.00,,,0.00,Rainwise IP-100,2013-02-25 01:42:00,
2013-02-24 18:47:00,33.0,21.0,27.13,NW,315,5.0,8.0,60,0.00,,,0.00,Rainwise IP-100,2013-02-25 01:47:00,
2013-02-24 18:52:00,33.0,23.0,27.13,NNW,337,6.0,8.0,61,0.00,,,0.00,Rainwise IP-100,2013-02-25 01:52:00,
2013-02-24 18:57:00,33.0,23.0,27.13,WNW,292,4.0,9.0,61,0.00,,,0.00,Rainwise IP-100,2013-02-25 01:57:00,
2013-02-24 19:02:00,33.0,23.0,27.13,NNW,337,1.0,4.0,61,0.00,,,0.00,Rainwise IP-100,2013-02-25 02:02:00,
2013-02-24 19:07:00,32.0,21.0,27.13,North,360,1.0,6.0,62,0.00,,,0.00,Rainwise IP-100,2013-02-25 02:07:00,
2013-02-24 19:12:00,32.0,21.0,27.14,NNW,337,2.0,4.0,63,0.00,,,0.00,Rainwise IP-100,2013-02-25 02:12:00,
2013-02-24 19:17:00,32.0,21.0,27.14,NNW,337,2.0,7.0,63,0.00,,,0.00,Rainwise IP-100,2013-02-25 02:17:00,
2013-02-24 19:22:00,32.0,21.0,27.14,NNW,337,3.0,5.0,63,0.00,,,0.00,Rainwise IP-100,2013-02-25 02:22:00,
2013-02-24 19:27:00,31.0,21.0,27.14,NW,315,2.0,5.0,63,0.00,,,0.00,Rainwise IP-100,2013-02-25 02:27:00,
2013-02-24 19:32:00,31.0,21.0,27.14,NW,315,1.0,5.0,64,0.00,,,0.00,Rainwise IP-100,2013-02-25 02:32:00,
2013-02-24 19:37:00,31.0,21.0,27.14,NNW,337,1.0,4.0,64,0.00,,,0.00,Rainwise IP-100,2013-02-25 02:37:00,
2013-02-24 19:42:00,31.0,21.0,27.14,NNW,337,2.0,5.0,65,0.00,,,0.00,Rainwise IP-100,2013-02-25 02:42:00,
2013-02-24 19:47:00,31.0,21.0,27.14,NNW,337,0.0,2.0,65,0.00,,,0.00,Rainwise IP-100,2013-02-25 02:47:00,
2013-02-24 19:52:00,30.0,21.0,27.14,NNW,337,1.0,3.0,67,0.00,,,0.00,Rainwise IP-100,2013-02-25 02:52:00,
2013-02-24 19:57:00,30.0,21.0,27.14,NNW,337,4.0,5.0,67,0.00,,,0.00,Rainwise IP-100,2013-02-25 02:57:00,
2013-02-24 20:02:00,30.0,21.0,27.15,NNW,337,5.0,5.0,67,0.00,,,0.00,Rainwise IP-100,2013-02-25 03:02:00,
2013-02-24 20:07:00,30.0,21.0,27.15,NNW,337,3.0,6.0,67,0.00,,,0.00,Rainwise IP-100,2013-02-25 03:07:00,
2013-02-24 20:12:00,30.0,21.0,27.14,NNW,337,2.0,6.0,66,0.00,,,0.00,Rainwise IP-100,2013-02-25 03:12:00,
2013-02-24 20:17:00,31.0,21.0,27.14,North,360,0.0,5.0,65,0.00,,,0.00,Rainwise IP-100,2013-02-25 03:17:00,
2013-02-24 20:22:00,30.0,21.0,27.13,North,360,0.0,2.0,65,0.00,,,0.00,Rainwise IP-100,2013-02-25 03:22:00,
2013-02-24 20:27:00,30.0,23.0,27.13,SE,135,2.0,3.0,68,0.00,,,0.00,Rainwise IP-100,2013-02-25 03:27:00,
2013-02-24 20:32:00,30.0,23.0,27.13,SE,135,1.0,4.0,68,0.00,,,0.00,Rainwise IP-100,2013-02-25 03:32:00,
2013-02-24 20:37:00,30.0,23.0,27.13,SSW,202,2.0,4.0,68,0.00,,,0.00,Rainwise IP-100,2013-02-25 03:37:00,
2013-02-24 20:42:00,30.0,23.0,27.13,SSW,202,1.0,3.0,69,0.00,,,0.00,Rainwise IP-100,2013-02-25 03:42:00,
2013-02-24 20:47:00,30.0,23.0,27.13,SSW,202,0.0,2.0,69,0.00,,,0.00,Rainwise IP-100,2013-02-25 03:47:00,
2013-02-24 20:52:00,29.0,21.0,27.13,SSW,202,0.0,0.0,70,0.00,,,0.00,Rainwise IP-100,2013-02-25 03:52:00,
2013-02-24 20:57:00,29.0,21.0,27.13,South,180,2.0,3.0,71,0.00,,,0.00,Rainwise IP-100,2013-02-25 03:57:00,
2013-02-24 21:02:00,29.0,21.0,27.14,South,180,1.0,3.0,71,0.00,,,0.00,Rainwise IP-100,2013-02-25 04:02:00,
2013-02-24 21:07:00,29.0,23.0,27.14,South,180,0.0,1.0,72,0.00,,,0.00,Rainwise IP-100,2013-02-25 04:07:00,
2013-02-24 21:12:00,29.0,23.0,27.13,South,180,3.0,3.0,73,0.00,,,0.00,Rainwise IP-100,2013-02-25 04:12:00,
2013-02-24 21:17:00,28.0,21.0,27.13,South,180,0.0,4.0,73,0.00,,,0.00,Rainwise IP-100,2013-02-25 04:17:00,
2013-02-24 21:22:00,28.0,21.0,27.13,South,180,2.0,2.0,73,0.00,,,0.00,Rainwise IP-100,2013-02-25 04:22:00,
2013-02-24 21:27:00,28.0,21.0,27.13,South,180,0.0,3.0,73,0.00,,,0.00,Rainwise IP-100,2013-02-25 04:27:00,
2013-02-24 21:32:00,28.0,21.0,27.13,South,180,0.0,0.0,74,0.00,,,0.00,Rainwise IP-100,2013-02-25 04:32:00,
2013-02-24 21:37:00,28.0,21.0,27.13,South,180,0.0,0.0,74,0.00,,,0.00,Rainwise IP-100,2013-02-25 04:37:00,
2013-02-24 21:42:00,27.0,21.0,27.14,South,180,0.0,0.0,75,0.00,,,0.00,Rainwise IP-100,2013-02-25 04:42:00,
2013-02-24 21:47:00,27.0,23.0,27.14,South,180,0.0,0.0,77,0.00,,,0.00,Rainwise IP-100,2013-02-25 04:47:00,
2013-02-24 21:52:00,26.0,21.0,27.15,South,180,0.0,0.0,79,0.00,,,0.00,Rainwise IP-100,2013-02-25 04:52:00,
2013-02-24 21:57:00,26.0,21.0,27.15,South,180,0.0,0.0,81,0.00,,,0.00,Rainwise IP-100,2013-02-25 04:57:00,
2013-02-24 22:00:00,26.0,21.0,27.15,South,180,0.0,0.0,80,0.00,,,0.00,Rainwise IP-100,2013-02-25 05:00:00,
2013-02-24 22:05:00,26.0,21.0,27.15,South,180,0.0,2.0,81,0.00,,,0.00,Rainwise IP-100,2013-02-25 05:05:00,
2013-02-24 22:10:00,25.0,21.0,27.15,South,180,0.0,0.0,81,0.00,,,0.00,Rainwise IP-100,2013-02-25 05:10:00,
2013-02-24 22:15:00,26.0,21.0,27.14,South,180,2.0,2.0,81,0.00,,,0.00,Rainwise IP-100,2013-02-25 05:15:00,
2013-02-24 22:20:00,26.0,21.0,27.14,South,180,2.0,4.0,81,0.00,,,0.00,Rainwise IP-100,2013-02-25 05:20:00,
2013-02-24 22:25:00,26.0,21.0,27.14,South,180,0.0,4.0,79,0.00,,,0.00,Rainwise IP-100,2013-02-25 05:25:00,
2013-02-24 22:30:00,26.0,21.0,27.14,South,180,0.0,1.0,79,0.00,,,0.00,Rainwise IP-100,2013-02-25 05:30:00,
2013-02-24 22:35:00,25.0,21.0,27.13,South,180,0.0,0.0,80,0.00,,,0.00,Rainwise IP-100,2013-02-25 05:35:00,
2013-02-24 22:40:00,25.0,23.0,27.13,South,180,0.0,0.0,83,0.00,,,0.00,Rainwise IP-100,2013-02-25 05:40:00,
2013-02-24 22:45:00,24.0,21.0,27.14,South,180,0.0,0.0,83,0.00,,,0.00,Rainwise IP-100,2013-02-25 05:45:00,
2013-02-24 22:50:00,24.0,21.0,27.14,South,180,0.0,0.0,84,0.00,,,0.00,Rainwise IP-100,2013-02-25 05:50:00,
2013-02-24 22:55:00,24.0,21.0,27.14,South,180,0.0,1.0,84,0.00,,,0.00,Rainwise IP-100,2013-02-25 05:55:00,
2013-02-24 23:00:00,24.0,21.0,27.14,South,180,0.0,0.0,84,0.00,,,0.00,Rainwise IP-100,2013-02-25 06:00:00,
2013-02-24 23:05:00,24.0,21.0,27.14,South,180,0.0,1.0,86,0.00,,,0.00,Rainwise IP-100,2013-02-25 06:05:00,
2013-02-24 23:10:00,24.0,21.0,27.14,South,180,0.0,0.0,84,0.00,,,0.00,Rainwise IP-100,2013-02-25 06:10:00,
2013-02-24 23:15:00,24.0,21.0,27.13,South,180,0.0,2.0,84,0.00,,,0.00,Rainwise IP-100,2013-02-25 06:15:00,
2013-02-24 23:20:00,24.0,21.0,27.13,South,180,0.0,1.0,84,0.00,,,0.00,Rainwise IP-100,2013-02-25 06:20:00,
2013-02-24 23:25:00,24.0,21.0,27.14,SSE,157,4.0,4.0,88,0.00,,,0.00,Rainwise IP-100,2013-02-25 06:25:00,
2013-02-24 23:30:00,24.0,21.0,27.14,ESE,112,0.0,5.0,86,0.00,,,0.00,Rainwise IP-100,2013-02-25 06:30:00,
2013-02-24 23:35:00,24.0,21.0,27.14,ENE,67,0.0,0.0,85,0.00,,,0.00,Rainwise IP-100,2013-02-25 06:35:00,
2013-02-24 23:40:00,24.0,21.0,27.14,SE,135,2.0,5.0,86,0.00,,,0.00,Rainwise IP-100,2013-02-25 06:40:00,
2013-02-24 23:45:00,24.0,21.0,27.13,SE,135,0.0,3.0,84,0.00,,,0.00,Rainwise IP-100,2013-02-25 06:45:00,
2013-02-24 23:50:00,25.0,23.0,27.13,SE,135,0.0,0.0,84,0.00,,,0.00,Rainwise IP-100,2013-02-25 06:50:00,
2013-02-24 23:55:00,25.0,23.0,27.13,NE,45,2.0,3.0,83,0.00,,,0.00,Rainwise IP-100,2013-02-25 06:55:00,